Time,TemperatureF,DewpointF,PressureIn,WindDirection,WindDirectionDegrees,WindSpeedMPH,WindSpeedGustMPH,Humidity,HourlyPrecipIn,Conditions,Clouds,dailyrainin,SoftwareType,DateUTC
2013-02-25 00:01:00,-999.0,-99.9,-100.00,SSE,150,25.0,36.0,-999,-99.99,,,-99.99,,2013-02-25 08:01:00,
2013-02-25 00:11:00,45.0,-99.9,-100.00,SSE,155,21.0,31.0,-999,-99.99,,,-99.99,,2013-02-25 08:11:00,
2013-02-25 00:22:00,-999.0,-99.9,-100.00,SSE,155,20.0,32.0,-999,-99.99,,,-99.99,,2013-02-25 08:22:00,
2013-02-25 00:32:00,-999.0,-99.9,-100.00,SSE,156,17.0,28.0,-999,-99.99,,,-99.99,,2013-02-25 08:32:00,
2013-02-25 00:42:00,-999.0,-99.9,-100.00,SSE,151,18.0,32.0,-999,-99.99,,,-99.99,,2013-02-25 08:42:00,
2013-02-25 00:52:00,45.0,-99.9,-100.00,SSE,150,24.0,35.0,-999,-99.99,,,-99.99,,2013-02-25 08:52:00,
2013-02-25 01:02:00,-999.0,-99.9,-100.00,SSE,149,17.0,26.0,-999,-99.99,,,-99.99,,2013-02-25 09:02:00,
2013-02-25 01:12:00,44.0,-99.9,-100.00,SSE,148,17.0,28.0,-999,-99.99,,,-99.99,,2013-02-25 09:12:00,
2013-02-25 01:21:00,-999.0,-99.9,-100.00,SSE,148,17.0,23.0,-999,-99.99,,,-99.99,,2013-02-25 09:21:00,
2013-02-25 01:32:00,-999.0,-99.9,-100.00,SSE,161,12.0,25.0,-999,-99.99,,,-99.99,,2013-02-25 09:32:00,
2013-02-25 01:42:00,44.0,-99.9,-100.00,SSE,161,12.0,21.0,-999,-99.99,,,-99.99,,2013-02-25 09:42:00,
2013-02-25 01:52:00,-999.0,-99.9,-100.00,SSE,161,12.0,21.0,-999,-99.99,,,-99.99,,2013-02-25 09:52:00,
2013-02-25 02:01:00,-999.0,-99.9,-100.00,SSE,159,10.0,20.0,-999,-99.99,,,-99.99,,2013-02-25 10:01:00,
2013-02-25 02:11:00,44.0,-99.9,-100.00,SSE,157,15.0,24.0,-999,-99.99,,,-99.99,,2013-02-25 10:11:00,
2013-02-25 02:22:00,-999.0,-99.9,-100.00,SSE,162,11.0,20.0,-999,-99.99,,,-99.99,,2013-02-25 10:22:00,
2013-02-25 02:32:00,-999.0,-99.9,-100.00,SSE,163,12.0,23.0,-999,-99.99,,,-99.99,,2013-02-25 10:32:00,
2013-02-25 02:42:00,43.0,-99.9,-100.00,SSE,164,10.0,26.0,-999,-99.99,,,-99.99,,2013-02-25 10:42:00,
2013-02-25 02:52:00,43.0,-99.9,-100.00,SSE,160,11.0,24.0,-999,-99.99,,,-99.99,,2013-02-25 10:52:00,
2013-02-25 03:01:00,-999.0,-99.9,-100.00,South,177,19.0,35.0,-999,-99.99,,,-99.99,,2013-02-25 11:01:00,
2013-02-25 03:11:00,-999.0,-99.9,-100.00,SSE,158,11.0,21.0,-999,-99.99,,,-99.99,,2013-02-25 11:11:00,
2013-02-25 03:22:00,43.0,-99.9,-100.00,SSE,166,9.0,20.0,-999,-99.99,,,-99.99,,2013-02-25 11:22:00,
2013-02-25 03:32:00,-999.0,-99.9,-100.00,SSE,158,9.0,18.0,-999,-99.99,,,-99.99,,2013-02-25 11:32:00,
2013-02-25 03:42:00,43.0,-99.9,-100.00,SSE,156,11.0,20.0,-999,-99.99,,,-99.99,,2013-02-25 11:42:00,
2013-02-25 03:52:00,43.0,-99.9,-100.00,SSE,163,8.0,19.0,-999,-99.99,,,-99.99,,2013-02-25 11:52:00,
2013-02-25 04:02:00,-999.0,-99.9,-100.00,SSE,160,9.0,18.0,-999,-99.99,,,-99.99,,2013-02-25 12:02:00,
2013-02-25 04:11:00,43.0,-99.9,-100.00,SSE,164,9.0,18.0,-999,-99.99,,,-99.99,,2013-02-25 12:11:00,
2013-02-25 04:22:00,-999.0,-99.9,-100.00,SSE,159,9.0,19.0,-999,-99.99,,,-99.99,,2013-02-25 12:22:00,
2013-02-25 04:32:00,-999.0,-99.9,-100.00,SSE,160,9.0,16.0,-999,-99.99,,,-99.99,,2013-02-25 12:32:00,
2013-02-25 04:42:00,43.0,-99.9,-100.00,SSE,156,11.0,18.0,-999,-99.99,,,-99.99,,2013-02-25 12:42:00,
2013-02-25 04:57:00,43.0,-99.9,-100.00,SSE,167,7.0,15.0,-999,-99.99,,,-99.99,,2013-02-25 12:57:00,
2013-02-25 05:03:00,-999.0,-99.9,-100.00,South,177,14.0,28.0,-999,-99.99,,,-99.99,,2013-02-25 13:03:00,
2013-02-25 05:12:00,-999.0,-99.9,-100.00,SSW,192,25.0,32.0,-999,-99.99,,,-99.99,,2013-02-25 13:12:00,
2013-02-25 05:23:00,44.0,-99.9,-100.00,South,191,25.0,34.0,-999,-99.99,,,-99.99,,2013-02-25 13:23:00,
2013-02-25 05:32:00,-999.0,-99.9,-100.00,South,191,23.0,33.0,-999,-99.99,,,-99.99,,2013-02-25 13:32:00,
2013-02-25 05:42:00,44.0,-99.9,-100.00,South,189,24.0,30.0,-999,-99.99,,,-99.99,,2013-02-25 13:42:00,
2013-02-25 05:53:00,44.0,-99.9,-100.00,South,185,22.0,29.0,-999,-99.99,,,-99.99,,2013-02-25 13:53:00,
2013-02-25 06:04:00,-999.0,-99.9,-100.00,SSW,197,28.0,34.0,-999,-99.99,,,-99.99,,2013-02-25 14:04:00,
2013-02-25 06:18:00,44.0,-99.9,-100.00,SSW,197,26.0,34.0,-999,-99.99,,,-99.99,,2013-02-25 14:18:00,
2013-02-25 06:32:00,-999.0,-99.9,-100.00,SSW,199,29.0,38.0,-999,-99.99,,,-99.99,,2013-02-25 14:32:00,
2013-02-25 06:42:00,-999.0,-99.9,-100.00,SSW,197,31.0,37.0,-999,-99.99,,,-99.99,,2013-02-25 14:42:00,
2013-02-25 06:52:00,44.0,-99.9,-100.00,SSW,194,28.0,36.0,-999,-99.99,,,-99.99,,2013-02-25 14:52:00,
2013-02-25 07:03:00,-999.0,-99.9,-100.00,SSW,196,32.0,39.0,-999,-99.99,,,-99.99,,2013-02-25 15:03:00,
2013-02-25 07:11:00,44.0,-99.9,-100.00,SSW,196,34.0,47.0,-999,-99.99,,,-99.99,,2013-02-25 15:11:00,
2013-02-25 07:22:00,-999.0,-99.9,-100.00,South,191,30.0,40.0,-999,-99.99,,,-99.99,,2013-02-25 15:22:00,
2013-02-25 07:32:00,-999.0,-99.9,-100.00,SSW,201,32.0,40.0,-999,-99.99,,,-99.99,,2013-02-25 15:32:00,
2013-02-25 07:42:00,44.0,-99.9,-100.00,SSW,192,35.0,42.0,-999,-99.99,,,-99.99,,2013-02-25 15:42:00,
2013-02-25 07:52:00,44.0,-99.9,-100.00,SSW,200,33.0,41.0,-999,-99.99,,,-99.99,,2013-02-25 15:52:00,
2013-02-25 08:02:00,-999.0,-99.9,-100.00,SSW,201,36.0,42.0,-999,-99.99,,,-99.99,,2013-02-25 16:02:00,
2013-02-25 08:12:00,43.0,-99.9,-100.00,SSW,196,36.0,44.0,-999,-99.99,,,-99.99,,2013-02-25 16:12:00,
2013-02-25 08:22:00,-999.0,-99.9,-100.00,SSW,201,36.0,46.0,-999,-99.99,,,-99.99,,2013-02-25 16:22:00,
2013-02-25 08:32:00,-999.0,-99.9,-100.00,SSW,206,36.0,44.0,-999,-99.99,,,-99.99,,2013-02-25 16:32:00,
2013-02-25 08:42:00,44.0,-99.9,-100.00,SSW,211,36.0,45.0,-999,-99.99,,,-99.99,,2013-02-25 16:42:00,
2013-02-25 08:52:00,44.0,-99.9,-100.00,SSW,212,38.0,45.0,-999,-99.99,,,-99.99,,2013-02-25 16:52:00,
2013-02-25 09:02:00,-999.0,-99.9,-100.00,SW,216,33.0,43.0,-999,-99.99,,,-99.99,,2013-02-25 17:02:00,
2013-02-25 09:11:00,44.0,-99.9,-100.00,SW,219,32.0,36.0,-999,-99.99,,,-99.99,,2013-02-25 17:11:00,
2013-02-25 09:22:00,-999.0,-99.9,-100.00,SW,225,30.0,39.0,-999,-99.99,,,-99.99,,2013-02-25 17:22:00,
2013-02-25 09:32:00,-999.0,-99.9,-100.00,SW,229,29.0,35.0,-999,-99.99,,,-99.99,,2013-02-25 17:32:00,
2013-02-25 09:42:00,44.0,-99.9,-100.00,WSW,240,29.0,34.0,-999,-99.99,,,-99.99,,2013-02-25 17:42:00,
2013-02-25 09:52:00,44.0,-99.9,-100.00,North,-999,-999.0,-999.0,-999,-99.99,,,-99.99,,2013-02-25 17:52:00,
2013-02-25 10:02:00,-999.0,-99.9,-100.00,WSW,255,27.0,34.0,-999,-99.99,,,-99.99,,2013-02-25 18:02:00,
2013-02-25 10:12:00,-999.0,-99.9,-100.00,WSW,257,26.0,31.0,-999,-99.99,,,-99.99,,2013-02-25 18:12:00,
2013-02-25 10:22:00,-999.0,-99.9,-100.00,WSW,257,26.0,31.0,-999,-99.99,,,-99.99,,2013-02-25 18:22:00,
2013-02-25 10:33:00,-999.0,-99.9,-100.00,WSW,251,27.0,32.0,-999,-99.99,,,-99.99,,2013-02-25 18:33:00,
2013-02-25 10:42:00,44.0,-99.9,-100.00,WSW,250,27.0,32.0,-999,-99.99,,,-99.99,,2013-02-25 18:42:00,
2013-02-25 10:52:00,43.0,-99.9,-100.00,WSW,250,30.0,35.0,-999,-99.99,,,-99.99,,2013-02-25 18:52:00,
2013-02-25 11:02:00,-999.0,-99.9,-100.00,WSW,250,18.0,24.0,-999,-99.99,,,-99.99,,2013-02-25 19:02:00,
2013-02-25 11:11:00,44.0,-99.9,-100.00,WSW,238,20.0,23.0,-999,-99.99,,,-99.99,,2013-02-25 19:11:00,
2013-02-25 11:22:00,-999.0,-99.9,-100.00,WSW,247,20.0,22.0,-999,-99.99,,,-99.99,,2013-02-25 19:22:00,
2013-02-25 11:32:00,-999.0,-99.9,-100.00,WSW,251,20.0,23.0,-999,-99.99,,,-99.99,,2013-02-25 19:32:00,
2013-02-25 11:42:00,45.0,-99.9,-100.00,WSW,249,19.0,25.0,-999,-99.99,,,-99.99,,2013-02-25 19:42:00,
2013-02-25 11:52:00,45.0,-99.9,-100.00,WSW,244,22.0,26.0,-999,-99.99,,,-99.99,,2013-02-25 19:52:00,
2013-02-25 12:01:00,-999.0,-99.9,-100.00,WSW,256,15.0,19.0,-999,-99.99,,,-99.99,,2013-02-25 20:01:00,
2013-02-25 12:11:00,45.0,-99.9,-100.00,West,261,18.0,22.0,-999,-99.99,,,-99.99,,2013-02-25 20:11:00,
2013-02-25 12:22:00,-999.0,-99.9,-100.00,WSW,257,19.0,21.0,-999,-99.99,,,-99.99,,2013-02-25 20:22:00,
2013-02-25 12:32:00,-999.0,-99.9,-100.00,West,261,17.0,20.0,-999,-99.99,,,-99.99,,2013-02-25 20:32:00,
2013-02-25 12:42:00,-999.0,-99.9,-100.00,WSW,257,15.0,17.0,-999,-99.99,,,-99.99,,2013-02-25 20:42:00,
2013-02-25 12:52:00,45.0,-99.9,-100.00,WSW,256,12.0,16.0,-999,-99.99,,,-99.99,,2013-02-25 20:52:00,
2013-02-25 13:02:00,-999.0,-99.9,-100.00,WNW,298,9.0,11.0,-999,-99.99,,,-99.99,,2013-02-25 21:02:00,
2013-02-25 13:11:00,44.0,-99.9,-100.00,NW,311,7.0,8.0,-999,-99.99,,,-99.99,,2013-02-25 21:11:00,
2013-02-25 13:22:00,-999.0,-99.9,-100.00,NW,314,6.0,7.0,-999,-99.99,,,-99.99,,2013-02-25 21:22:00,
2013-02-25 13:32:00,-999.0,-99.9,-100.00,WNW,302,6.0,7.0,-999,-99.99,,,-99.99,,2013-02-25 21:32:00,
2013-02-25 13:42:00,44.0,-99.9,-100.00,WNW,303,7.0,8.0,-999,-99.99,,,-99.99,,2013-02-25 21:42:00,
2013-02-25 13:52:00,44.0,-99.9,-100.00,WNW,291,9.0,12.0,-999,-99.99,,,-99.99,,2013-02-25 21:52:00,
2013-02-25 14:02:00,-999.0,-99.9,-100.00,NW,314,9.0,10.0,-999,-99.99,,,-99.99,,2013-02-25 22:02:00,
2013-02-25 14:11:00,44.0,-99.9,-100.00,NW,312,8.0,10.0,-999,-99.99,,,-99.99,,2013-02-25 22:11:00,
2013-02-25 14:22:00,-999.0,-99.9,-100.00,WNW,296,6.0,9.0,-999,-99.99,,,-99.99,,2013-02-25 22:22:00,
2013-02-25 14:32:00,-999.0,-99.9,-100.00,West,281,6.0,9.0,-999,-99.99,,,-99.99,,2013-02-25 22:32:00,
2013-02-25 14:42:00,45.0,-99.9,-100.00,WNW,282,7.0,9.0,-999,-99.99,,,-99.99,,2013-02-25 22:42:00,
2013-02-25 14:52:00,45.0,-99.9,-100.00,North,-999,-999.0,-999.0,-999,-99.99,,,-99.99,,2013-02-25 22:52:00,
2013-02-25 15:01:00,-999.0,-99.9,-100.00,West,265,7.0,8.0,-999,-99.99,,,-99.99,,2013-02-25 23:01:00,
2013-02-25 15:11:00,45.0,-99.9,-100.00,West,266,8.0,9.0,-999,-99.99,,,-99.99,,2013-02-25 23:11:00,
2013-02-25 15:22:00,-999.0,-99.9,-100.00,WSW,255,6.0,8.0,-999,-99.99,,,-99.99,,2013-02-25 23:22:00,
2013-02-25 15:32:00,-999.0,-99.9,-100.00,WSW,247,5.0,7.0,-999,-99.99,,,-99.99,,2013-02-25 23:32:00,
2013-02-25 15:42:00,-999.0,-99.9,-100.00,West,275,6.0,7.0,-999,-99.99,,,-99.99,,2013-02-25 23:42:00,
2013-02-25 15:52:00,45.0,-99.9,-100.00,West,273,8.0,10.0,-999,-99.99,,,-99.99,,2013-02-25 23:52:00,
2013-02-25 16:02:00,-999.0,-99.9,-100.00,West,273,6.0,9.0,-999,-99.99,,,-99.99,,2013-02-26 00:02:00,
2013-02-25 16:12:00,45.0,-99.9,-100.00,West,261,6.0,8.0,-999,-99.99,,,-99.99,,2013-02-26 00:12:00,
2013-02-25 16:22:00,-999.0,-99.9,-100.00,West,268,6.0,7.0,-999,-99.99,,,-99.99,,2013-02-26 00:22:00,
2013-02-25 16:32:00,-999.0,-99.9,-100.00,WSW,257,6.0,8.0,-999,-99.99,,,-99.99,,2013-02-26 00:32:00,
2013-02-25 16:42:00,-999.0,-99.9,-100.00,WSW,252,7.0,8.0,-999,-99.99,,,-99.99,,2013-02-26 00:42:00,
2013-02-25 16:52:00,45.0,-99.9,-100.00,WNW,284,6.0,9.0,-999,-99.99,,,-99.99,,2013-02-26 00:52:00,
2013-02-25 17:02:00,-999.0,-99.9,-100.00,WSW,244,10.0,14.0,-999,-99.99,,,-99.99,,2013-02-26 01:02:00,
2013-02-25 17:11:00,45.0,-99.9,-100.00,West,262,9.0,17.0,-999,-99.99,,,-99.99,,2013-02-26 01:11:00,
2013-02-25 17:22:00,-999.0,-99.9,-100.00,WSW,251,8.0,9.0,-999,-99.99,,,-99.99,,2013-02-26 01:22:00,
2013-02-25 17:32:00,-999.0,-99.9,-100.00,WSW,249,7.0,10.0,-999,-99.99,,,-99.99,,2013-02-26 01:32:00,
2013-02-25 17:42:00,45.0,-99.9,-100.00,WSW,244,6.0,9.0,-999,-99.99,,,-99.99,,2013-02-26 01:42:00,
2013-02-25 17:52:00,45.0,-99.9,-100.00,North,-999,-999.0,-999.0,-999,-99.99,,,-99.99,,2013-02-26 01:52:00,
2013-02-25 18:01:00,-999.0,-99.9,-100.00,West,271,8.0,11.0,-999,-99.99,,,-99.99,,2013-02-26 02:01:00,
2013-02-25 18:12:00,46.0,-99.9,-100.00,West,267,8.0,9.0,-999,-99.99,,,-99.99,,2013-02-26 02:12:00,
2013-02-25 18:22:00,-999.0,-99.9,-100.00,SW,226,7.0,11.0,-999,-99.99,,,-99.99,,2013-02-26 02:22:00,
2013-02-25 18:32:00,-999.0,-99.9,-100.00,WSW,238,8.0,10.0,-999,-99.99,,,-99.99,,2013-02-26 02:32:00,
2013-02-25 18:42:00,-999.0,-99.9,-100.00,SW,234,8.0,9.0,-999,-99.99,,,-99.99,,2013-02-26 02:42:00,
2013-02-25 18:52:00,46.0,-99.9,-100.00,WNW,284,9.0,11.0,-999,-99.99,,,-99.99,,2013-02-26 02:52:00,
2013-02-25 19:02:00,-999.0,-99.9,-100.00,SW,220,7.0,9.0,-999,-99.99,,,-99.99,,2013-02-26 03:02:00,
2013-02-25 19:12:00,46.0,-99.9,-100.00,SW,225,10.0,14.0,-999,-99.99,,,-99.99,,2013-02-26 03:12:00,
2013-02-25 19:22:00,-999.0,-99.9,-100.00,SW,235,11.0,17.0,-999,-99.99,,,-99.99,,2013-02-26 03:22:00,
2013-02-25 19:32:00,-999.0,-99.9,-100.00,WSW,250,14.0,17.0,-999,-99.99,,,-99.99,,2013-02-26 03:32:00,
2013-02-25 19:42:00,46.0,-99.9,-100.00,WSW,253,12.0,16.0,-999,-99.99,,,-99.99,,2013-02-26 03:42:00,
2013-02-25 19:52:00,46.0,-99.9,-100.00,WSW,249,12.0,14.0,-999,-99.99,,,-99.99,,2013-02-26 03:52:00,
2013-02-25 20:02:00,-999.0,-99.9,-100.00,WSW,241,13.0,15.0,-999,-99.99,,,-99.99,,2013-02-26 04:02:00,
2013-02-25 20:12:00,-999.0,-99.9,-100.00,WSW,243,14.0,15.0,-999,-99.99,,,-99.99,,2013-02-26 04:12:00,
2013-02-25 20:22:00,45.0,-99.9,-100.00,WSW,245,14.0,16.0,-999,-99.99,,,-99.99,,2013-02-26 04:22:00,
2013-02-25 20:32:00,-999.0,-99.9,-100.00,WSW,257,16.0,19.0,-999,-99.99,,,-99.99,,2013-02-26 04:32:00,
2013-02-25 20:43:00,45.0,-99.9,-100.00,West,260,15.0,17.0,-999,-99.99,,,-99.99,,2013-02-26 04:43:00,
2013-02-25 20:52:00,45.0,-99.9,-100.00,North,-999,-999.0,-999.0,-999,-99.99,,,-99.99,,2013-02-26 04:52:00,
2013-02-25 21:01:00,-999.0,-99.9,-100.00,WSW,253,11.0,14.0,-999,-99.99,,,-99.99,,2013-02-26 05:01:00,
2013-02-25 21:12:00,45.0,-99.9,-100.00,WSW,238,11.0,13.0,-999,-99.99,,,-99.99,,2013-02-26 05:12:00,
2013-02-25 21:22:00,-999.0,-99.9,-100.00,SW,223,14.0,15.0,-999,-99.99,,,-99.99,,2013-02-26 05:22:00,
2013-02-25 21:32:00,-999.0,-99.9,-100.00,WSW,242,14.0,16.0,-999,-99.99,,,-99.99,,2013-02-26 05:32:00,
2013-02-25 21:43:00,-999.0,-99.9,-100.00,WSW,257,13.0,15.0,-999,-99.99,,,-99.99,,2013-02-26 05:43:00,
2013-02-25 21:52:00,45.0,-99.9,-100.00,West,263,13.0,15.0,-999,-99.99,,,-99.99,,2013-02-26 05:52:00,
2013-02-25 22:02:00,-999.0,-99.9,-100.00,West,261,14.0,16.0,-999,-99.99,,,-99.99,,2013-02-26 06:02:00,
2013-02-25 22:11:00,45.0,-99.9,-100.00,West,262,14.0,16.0,-999,-99.99,,,-99.99,,2013-02-26 06:11:00,
2013-02-25 22:22:00,-999.0,-99.9,-100.00,West,261,13.0,15.0,-999,-99.99,,,-99.99,,2013-02-26 06:22:00,
2013-02-25 22:32:00,-999.0,-99.9,-100.00,West,270,15.0,17.0,-999,-99.99,,,-99.99,,2013-02-26 06:32:00,
2013-02-25 22:42:00,45.0,-99.9,-100.00,West,273,15.0,17.0,-999,-99.99,,,-99.99,,2013-02-26 06:42:00,
2013-02-25 22:52:00,45.0,-99.9,-100.00,North,-999,-999.0,-999.0,-999,-99.99,,,-99.99,,2013-02-26 06:52:00,
2013-02-25 23:01:00,-999.0,-99.9,-100.00,WNW,289,14.0,16.0,-999,-99.99,,,-99.99,,2013-02-26 07:01:00,
2013-02-25 23:11:00,-999.0,-99.9,-100.00,WNW,297,15.0,16.0,-999,-99.99,,,-99.99,,2013-02-26 07:11:00,
2013-02-25 23:22:00,44.0,-99.9,-100.00,WNW,295,13.0,15.0,-999,-99.99,,,-99.99,,2013-02-26 07:22:00,
2013-02-25 23:32:00,-999.0,-99.9,-100.00,West,277,7.0,10.0,-999,-99.99,,,-99.99,,2013-02-26 07:32:00,
2013-02-25 23:42:00,44.0,-99.9,-100.00,West,261,5.0,7.0,-999,-99.99,,,-99.99,,2013-02-26 07:42:00,
2013-02-25 23:52:00,45.0,-99.9,-100.00,SW,220,8.0,9.0,-999,-99.99,,,-99.99,,2013-02-26 07:52:00,